sensor_id;sensor_type;location;lat;lon;timestamp;pressure;altitude;pressure_sealevel;temperature;humidity
68506;BME280;55509;50.680;17.942;2023-02-17T00:02:56;100231.75;;;4.18;71.46
68506;BME280;55509;50.680;17.942;2023-02-17T00:05:57;100228.59;;;4.16;71.45
68506;BME280;55509;50.680;17.942;2023-02-17T00:08:59;100219.04;;;4.18;71.62
68506;BME280;55509;50.680;17.942;2023-02-17T00:12:02;100214.17;;;4.20;71.51
68506;BME280;55509;50.680;17.942;2023-02-17T00:15:04;100218.37;;;4.23;71.34
68506;BME280;55509;50.680;17.942;2023-02-17T00:18:05;100212.09;;;4.23;71.27
68506;BME280;55509;50.680;17.942;2023-02-17T00:21:26;100215.05;;;4.23;71.37
68506;BME280;55509;50.680;17.942;2023-02-17T00:24:28;100214.35;;;4.21;71.25
68506;BME280;55509;50.680;17.942;2023-02-17T00:27:30;100215.39;;;4.21;71.24
68506;BME280;55509;50.680;17.942;2023-02-17T00:30:32;100214.34;;;4.19;71.18
68506;BME280;55509;50.680;17.942;2023-02-17T00:33:33;100211.56;;;4.20;71.21
68506;BME280;55509;50.680;17.942;2023-02-17T00:36:35;100210.17;;;4.21;71.16
68506;BME280;55509;50.680;17.942;2023-02-17T00:39:37;100214.36;;;4.23;71.19
68506;BME280;55509;50.680;17.942;2023-02-17T00:42:38;100217.14;;;4.21;71.26
68506;BME280;55509;50.680;17.942;2023-02-17T00:45:40;100214.52;;;4.19;71.25
68506;BME280;55509;50.680;17.942;2023-02-17T00:48:41;100214.85;;;4.15;71.17
68506;BME280;55509;50.680;17.942;2023-02-17T00:51:43;100217.08;;;4.11;71.13
68506;BME280;55509;50.680;17.942;2023-02-17T00:54:45;100213.73;;;4.07;71.34
68506;BME280;55509;50.680;17.942;2023-02-17T00:57:46;100211.98;;;4.03;71.33
68506;BME280;55509;50.680;17.942;2023-02-17T01:00:48;100217.71;;;4.03;71.26
68506;BME280;55509;50.680;17.942;2023-02-17T01:03:49;100216.30;;;4.00;71.23
68506;BME280;55509;50.680;17.942;2023-02-17T01:06:51;100222.38;;;3.99;71.31
68506;BME280;55509;50.680;17.942;2023-02-17T01:09:52;100222.38;;;3.98;71.26
68506;BME280;55509;50.680;17.942;2023-02-17T01:12:54;100217.16;;;3.98;71.29
68506;BME280;55509;50.680;17.942;2023-02-17T01:15:55;100215.08;;;3.99;71.30
68506;BME280;55509;50.680;17.942;2023-02-17T01:18:57;100215.27;;;4.01;71.07
68506;BME280;55509;50.680;17.942;2023-02-17T01:21:58;100213.36;;;4.02;70.97
68506;BME280;55509;50.680;17.942;2023-02-17T01:25:00;100213.54;;;4.02;70.99
68506;BME280;55509;50.680;17.942;2023-02-17T01:28:01;100212.99;;;4.00;70.79
68506;BME280;55509;50.680;17.942;2023-02-17T01:31:07;100210.01;;;3.96;70.84
68506;BME280;55509;50.680;17.942;2023-02-17T01:34:09;100207.34;;;3.89;70.61
68506;BME280;55509;50.680;17.942;2023-02-17T01:37:10;100203.30;;;3.83;70.73
68506;BME280;55509;50.680;17.942;2023-02-17T01:40:13;100204.82;;;3.78;70.58
68506;BME280;55509;50.680;17.942;2023-02-17T01:43:15;100212.44;;;3.73;70.57
68506;BME280;55509;50.680;17.942;2023-02-17T01:46:17;100205.92;;;3.63;70.41
68506;BME280;55509;50.680;17.942;2023-02-17T01:49:52;100201.96;;;3.47;70.74
68506;BME280;55509;50.680;17.942;2023-02-17T01:52:47;100196.16;;;3.24;71.08
68506;BME280;55509;50.680;17.942;2023-02-17T01:55:48;100192.33;;;3.05;71.36
68506;BME280;55509;50.680;17.942;2023-02-17T01:58:56;100185.20;;;2.88;72.23
68506;BME280;55509;50.680;17.942;2023-02-17T02:01:59;100184.51;;;2.73;72.85
68506;BME280;55509;50.680;17.942;2023-02-17T02:05:04;100181.40;;;2.61;73.02
68506;BME280;55509;50.680;17.942;2023-02-17T02:08:06;100176.48;;;2.57;73.66
68506;BME280;55509;50.680;17.942;2023-02-17T02:11:07;100171.95;;;2.55;73.62
68506;BME280;55509;50.680;17.942;2023-02-17T02:14:09;100166.92;;;2.56;73.98
68506;BME280;55509;50.680;17.942;2023-02-17T02:17:19;100166.95;;;2.56;74.40
68506;BME280;55509;50.680;17.942;2023-02-17T02:36:10;100155.63;;;2.54;75.10
68506;BME280;55509;50.680;17.942;2023-02-17T02:39:15;100140.45;;;2.48;75.34
68506;BME280;55509;50.680;17.942;2023-02-17T02:42:18;100136.20;;;2.41;75.38
68506;BME280;55509;50.680;17.942;2023-02-17T02:45:21;100139.09;;;2.37;75.80
68506;BME280;55509;50.680;17.942;2023-02-17T02:48:23;100135.06;;;2.34;75.80
68506;BME280;55509;50.680;17.942;2023-02-17T02:55:00;100124.73;;;2.27;76.55
68506;BME280;55509;50.680;17.942;2023-02-17T03:01:15;100114.27;;;2.21;76.72
68506;BME280;55509;50.680;17.942;2023-02-17T03:04:26;100113.90;;;2.20;76.94
68506;BME280;55509;50.680;17.942;2023-02-17T03:07:46;100111.95;;;2.17;77.30
68506;BME280;55509;50.680;17.942;2023-02-17T03:10:49;100110.02;;;2.16;77.37
68506;BME280;55509;50.680;17.942;2023-02-17T03:13:51;100112.45;;;2.17;77.19
68506;BME280;55509;50.680;17.942;2023-02-17T03:16:53;100107.83;;;2.21;77.45
68506;BME280;55509;50.680;17.942;2023-02-17T03:19:55;100105.30;;;2.27;77.31
68506;BME280;55509;50.680;17.942;2023-02-17T03:22:57;100105.41;;;2.35;77.44
68506;BME280;55509;50.680;17.942;2023-02-17T03:25:59;100105.84;;;2.42;77.36
68506;BME280;55509;50.680;17.942;2023-02-17T03:29:00;100104.86;;;2.48;77.05
68506;BME280;55509;50.680;17.942;2023-02-17T03:32:02;100105.44;;;2.52;77.09
68506;BME280;55509;50.680;17.942;2023-02-17T03:35:04;100104.04;;;2.51;77.17
68506;BME280;55509;50.680;17.942;2023-02-17T03:38:05;100102.96;;;2.50;77.16
68506;BME280;55509;50.680;17.942;2023-02-17T03:41:07;100101.05;;;2.48;77.53
68506;BME280;55509;50.680;17.942;2023-02-17T03:44:08;100099.14;;;2.48;77.61
68506;BME280;55509;50.680;17.942;2023-02-17T03:47:10;100097.05;;;2.48;77.90
68506;BME280;55509;50.680;17.942;2023-02-17T03:50:11;100097.92;;;2.49;77.88
68506;BME280;55509;50.680;17.942;2023-02-17T03:53:13;100091.33;;;2.48;77.80
68506;BME280;55509;50.680;17.942;2023-02-17T03:56:14;100098.75;;;2.45;77.82
68506;BME280;55509;50.680;17.942;2023-02-17T03:59:16;100099.20;;;2.39;77.81
68506;BME280;55509;50.680;17.942;2023-02-17T04:02:18;100099.14;;;2.34;78.12
68506;BME280;55509;50.680;17.942;2023-02-17T04:05:19;100091.29;;;2.30;78.07
68506;BME280;55509;50.680;17.942;2023-02-17T04:08:21;100097.86;;;2.28;78.44
68506;BME280;55509;50.680;17.942;2023-02-17T04:11:23;100096.45;;;2.26;78.75
68506;BME280;55509;50.680;17.942;2023-02-17T04:14:25;100099.52;;;2.23;78.84
68506;BME280;55509;50.680;17.942;2023-02-17T04:17:26;100094.79;;;2.18;79.03
68506;BME280;55509;50.680;17.942;2023-02-17T04:20:28;100089.75;;;2.17;79.12
68506;BME280;55509;50.680;17.942;2023-02-17T04:23:29;100094.45;;;2.18;79.31
68506;BME280;55509;50.680;17.942;2023-02-17T04:26:31;100094.79;;;2.18;79.24
68506;BME280;55509;50.680;17.942;2023-02-17T04:29:32;100097.57;;;2.19;79.17
68506;BME280;55509;50.680;17.942;2023-02-17T04:32:34;100094.45;;;2.19;79.27
68506;BME280;55509;50.680;17.942;2023-02-17T04:35:35;100090.45;;;2.19;79.20
68506;BME280;55509;50.680;17.942;2023-02-17T04:38:37;100083.85;;;2.18;79.32
68506;BME280;55509;50.680;17.942;2023-02-17T04:41:39;100080.33;;;2.14;79.44
68506;BME280;55509;50.680;17.942;2023-02-17T04:44:40;100082.37;;;2.12;79.36
68506;BME280;55509;50.680;17.942;2023-02-17T04:47:42;100075.77;;;2.10;79.78
68506;BME280;55509;50.680;17.942;2023-02-17T04:50:43;100072.45;;;2.07;79.80
68506;BME280;55509;50.680;17.942;2023-02-17T04:53:45;100073.05;;;2.02;80.02
68506;BME280;55509;50.680;17.942;2023-02-17T04:56:46;100073.94;;;2.03;80.19
68506;BME280;55509;50.680;17.942;2023-02-17T04:59:48;100068.58;;;2.03;80.25
68506;BME280;55509;50.680;17.942;2023-02-17T05:02:50;100071.34;;;2.03;80.07
68506;BME280;55509;50.680;17.942;2023-02-17T05:05:51;100075.32;;;2.02;80.20
68506;BME280;55509;50.680;17.942;2023-02-17T05:08:56;100068.38;;;2.02;80.28
68506;BME280;55509;50.680;17.942;2023-02-17T05:11:57;100062.15;;;2.03;80.49
68506;BME280;55509;50.680;17.942;2023-02-17T05:14:59;100052.63;;;2.03;80.41
68506;BME280;55509;50.680;17.942;2023-02-17T05:18:01;100048.11;;;2.03;80.66
68506;BME280;55509;50.680;17.942;2023-02-17T05:21:02;100049.52;;;2.06;80.21
68506;BME280;55509;50.680;17.942;2023-02-17T05:24:04;100050.81;;;2.13;80.53
68506;BME280;55509;50.680;17.942;2023-02-17T05:27:06;100046.20;;;2.19;80.55
68506;BME280;55509;50.680;17.942;2023-02-17T05:30:07;100043.25;;;2.18;80.57
68506;BME280;55509;50.680;17.942;2023-02-17T05:33:09;100040.27;;;2.16;80.48
68506;BME280;55509;50.680;17.942;2023-02-17T05:36:11;100037.86;;;2.17;80.52
68506;BME280;55509;50.680;17.942;2023-02-17T05:39:12;100035.80;;;2.19;80.50
68506;BME280;55509;50.680;17.942;2023-02-17T05:42:14;100029.22;;;2.20;80.69
68506;BME280;55509;50.680;17.942;2023-02-17T05:45:15;100024.34;;;2.18;80.62
68506;BME280;55509;50.680;17.942;2023-02-17T05:48:17;100023.83;;;2.19;80.86
68506;BME280;55509;50.680;17.942;2023-02-17T05:51:18;100025.07;;;2.21;80.73
68506;BME280;55509;50.680;17.942;2023-02-17T05:54:20;100030.99;;;2.24;80.79
68506;BME280;55509;50.680;17.942;2023-02-17T05:57:21;100032.41;;;2.27;80.68
68506;BME280;55509;50.680;17.942;2023-02-17T06:00:23;100032.57;;;2.25;80.87
68506;BME280;55509;50.680;17.942;2023-02-17T06:03:25;100026.86;;;2.26;81.03
68506;BME280;55509;50.680;17.942;2023-02-17T06:06:26;100023.10;;;2.31;81.04
68506;BME280;55509;50.680;17.942;2023-02-17T06:09:27;100018.99;;;2.37;80.99
68506;BME280;55509;50.680;17.942;2023-02-17T06:12:29;100014.69;;;2.42;80.81
68506;BME280;55509;50.680;17.942;2023-02-17T06:15:31;100015.45;;;2.47;81.01
68506;BME280;55509;50.680;17.942;2023-02-17T06:18:34;100016.19;;;2.51;80.60
68506;BME280;55509;50.680;17.942;2023-02-17T06:21:35;100010.64;;;2.52;80.80
68506;BME280;55509;50.680;17.942;2023-02-17T06:24:37;100004.77;;;2.56;80.81
68506;BME280;55509;50.680;17.942;2023-02-17T06:27:38;100007.76;;;2.60;80.53
68506;BME280;55509;50.680;17.942;2023-02-17T06:30:42;99999.66;;;2.65;80.42
68506;BME280;55509;50.680;17.942;2023-02-17T06:33:43;100001.59;;;2.69;80.10
68506;BME280;55509;50.680;17.942;2023-02-17T06:36:45;100000.21;;;2.70;80.21
68506;BME280;55509;50.680;17.942;2023-02-17T06:39:46;100000.42;;;2.75;80.10
68506;BME280;55509;50.680;17.942;2023-02-17T06:42:48;100002.73;;;2.80;79.80
68506;BME280;55509;50.680;17.942;2023-02-17T06:45:49;100001.59;;;2.89;79.69
68506;BME280;55509;50.680;17.942;2023-02-17T06:48:51;100004.05;;;2.92;79.70
68506;BME280;55509;50.680;17.942;2023-02-17T06:51:52;100004.58;;;2.93;79.86
68506;BME280;55509;50.680;17.942;2023-02-17T06:54:54;100003.36;;;2.93;80.07
68506;BME280;55509;50.680;17.942;2023-02-17T06:57:55;100001.63;;;2.93;79.90
68506;BME280;55509;50.680;17.942;2023-02-17T07:00:57;100001.83;;;2.95;80.06
68506;BME280;55509;50.680;17.942;2023-02-17T07:03:58;100002.67;;;2.94;80.33
68506;BME280;55509;50.680;17.942;2023-02-17T07:07:00;100006.31;;;2.92;80.53
68506;BME280;55509;50.680;17.942;2023-02-17T07:10:02;100003.18;;;2.91;80.81
68506;BME280;55509;50.680;17.942;2023-02-17T07:13:04;100009.59;;;2.91;81.12
68506;BME280;55509;50.680;17.942;2023-02-17T07:16:05;100010.46;;;2.91;81.49
68506;BME280;55509;50.680;17.942;2023-02-17T07:19:07;100004.86;;;2.86;81.71
68506;BME280;55509;50.680;17.942;2023-02-17T07:22:08;100006.07;;;2.84;82.10
68506;BME280;55509;50.680;17.942;2023-02-17T07:25:10;100006.81;;;2.91;82.43
68506;BME280;55509;50.680;17.942;2023-02-17T07:28:11;99997.31;;;2.96;82.48
68506;BME280;55509;50.680;17.942;2023-02-17T07:31:14;99995.95;;;3.00;82.56
68506;BME280;55509;50.680;17.942;2023-02-17T07:34:16;99995.64;;;3.06;82.92
68506;BME280;55509;50.680;17.942;2023-02-17T07:37:18;99991.88;;;3.13;83.27
68506;BME280;55509;50.680;17.942;2023-02-17T07:40:22;99996.30;;;3.25;83.12
68506;BME280;55509;50.680;17.942;2023-02-17T07:43:23;99991.52;;;3.38;82.79
68506;BME280;55509;50.680;17.942;2023-02-17T07:46:25;99996.10;;;3.49;82.87
68506;BME280;55509;50.680;17.942;2023-02-17T07:49:27;99996.17;;;3.61;82.84
68506;BME280;55509;50.680;17.942;2023-02-17T07:52:28;99996.38;;;3.67;82.80
68506;BME280;55509;50.680;17.942;2023-02-17T07:55:30;99993.58;;;3.66;82.68
68506;BME280;55509;50.680;17.942;2023-02-17T07:58:32;99993.39;;;3.63;82.92
68506;BME280;55509;50.680;17.942;2023-02-17T08:01:34;99990.42;;;3.60;83.14
68506;BME280;55509;50.680;17.942;2023-02-17T08:04:35;99986.42;;;3.62;83.02
68506;BME280;55509;50.680;17.942;2023-02-17T08:07:37;99981.77;;;3.66;83.14
68506;BME280;55509;50.680;17.942;2023-02-17T08:10:38;99981.43;;;3.71;83.34
68506;BME280;55509;50.680;17.942;2023-02-17T08:13:59;99978.30;;;3.71;83.41
68506;BME280;55509;50.680;17.942;2023-02-17T08:17:01;99974.99;;;3.70;83.69
68506;BME280;55509;50.680;17.942;2023-02-17T08:20:02;99977.09;;;3.70;83.84
68506;BME280;55509;50.680;17.942;2023-02-17T08:23:04;99971.70;;;3.74;84.12
68506;BME280;55509;50.680;17.942;2023-02-17T08:26:05;99972.77;;;3.81;84.06
68506;BME280;55509;50.680;17.942;2023-02-17T08:29:07;99966.56;;;3.91;84.29
68506;BME280;55509;50.680;17.942;2023-02-17T08:32:08;99965.71;;;3.99;84.46
68506;BME280;55509;50.680;17.942;2023-02-17T08:35:10;99967.98;;;4.03;84.23
68506;BME280;55509;50.680;17.942;2023-02-17T08:38:12;99970.44;;;4.09;84.31
68506;BME280;55509;50.680;17.942;2023-02-17T08:41:14;99973.23;;;4.16;84.38
68506;BME280;55509;50.680;17.942;2023-02-17T08:44:17;99973.79;;;4.25;84.19
68506;BME280;55509;50.680;17.942;2023-02-17T08:47:18;99976.05;;;4.30;84.41
68506;BME280;55509;50.680;17.942;2023-02-17T08:50:20;99973.30;;;4.33;84.36
68506;BME280;55509;50.680;17.942;2023-02-17T08:53:23;99975.02;;;4.35;84.35
68506;BME280;55509;50.680;17.942;2023-02-17T08:56:25;99977.65;;;4.42;84.22
68506;BME280;55509;50.680;17.942;2023-02-17T08:59:26;99968.61;;;4.49;84.46
68506;BME280;55509;50.680;17.942;2023-02-17T09:02:28;99970.17;;;4.57;84.55
68506;BME280;55509;50.680;17.942;2023-02-17T09:05:29;99964.09;;;4.63;84.38
68506;BME280;55509;50.680;17.942;2023-02-17T09:08:32;99961.48;;;4.76;84.37
68506;BME280;55509;50.680;17.942;2023-02-17T09:11:34;99960.27;;;4.90;84.11
68506;BME280;55509;50.680;17.942;2023-02-17T09:14:35;99952.41;;;5.01;84.08
68506;BME280;55509;50.680;17.942;2023-02-17T09:17:37;99943.16;;;5.12;84.13
68506;BME280;55509;50.680;17.942;2023-02-17T09:20:40;99942.06;;;5.31;83.85
68506;BME280;55509;50.680;17.942;2023-02-17T09:23:41;99946.04;;;5.50;83.66
68506;BME280;55509;50.680;17.942;2023-02-17T09:26:43;99946.15;;;5.67;83.13
68506;BME280;55509;50.680;17.942;2023-02-17T09:29:45;99950.15;;;5.71;82.66
68506;BME280;55509;50.680;17.942;2023-02-17T09:32:46;99955.55;;;5.72;82.89
68506;BME280;55509;50.680;17.942;2023-02-17T09:35:48;99954.31;;;5.76;82.99
68506;BME280;55509;50.680;17.942;2023-02-17T09:38:49;99953.95;;;5.78;83.07
68506;BME280;55509;50.680;17.942;2023-02-17T09:41:51;99952.38;;;5.81;83.33
68506;BME280;55509;50.680;17.942;2023-02-17T09:45:04;99949.57;;;5.83;83.33
68506;BME280;55509;50.680;17.942;2023-02-17T09:48:07;99947.09;;;5.89;83.06
68506;BME280;55509;50.680;17.942;2023-02-17T09:57:31;99944.46;;;5.93;83.61
68506;BME280;55509;50.680;17.942;2023-02-17T10:00:40;99940.98;;;5.92;83.94
68506;BME280;55509;50.680;17.942;2023-02-17T10:03:45;99937.14;;;5.90;84.34
68506;BME280;55509;50.680;17.942;2023-02-17T10:06:49;99931.90;;;5.92;84.75
68506;BME280;55509;50.680;17.942;2023-02-17T10:09:57;99928.73;;;5.96;85.06
68506;BME280;55509;50.680;17.942;2023-02-17T10:13:03;99922.77;;;6.00;85.52
68506;BME280;55509;50.680;17.942;2023-02-17T10:16:07;99918.44;;;5.95;85.63
68506;BME280;55509;50.680;17.942;2023-02-17T10:19:21;99905.92;;;5.85;85.98
68506;BME280;55509;50.680;17.942;2023-02-17T10:22:24;99894.63;;;5.77;86.22
68506;BME280;55509;50.680;17.942;2023-02-17T10:25:37;99888.89;;;5.72;86.89
68506;BME280;55509;50.680;17.942;2023-02-17T10:31:51;99878.05;;;5.75;86.93
68506;BME280;55509;50.680;17.942;2023-02-17T10:38:29;99875.52;;;5.93;86.86
68506;BME280;55509;50.680;17.942;2023-02-17T10:41:34;99876.17;;;6.01;86.81
68506;BME280;55509;50.680;17.942;2023-02-17T10:44:36;99870.23;;;6.07;86.73
68506;BME280;55509;50.680;17.942;2023-02-17T10:47:38;99864.59;;;6.13;86.24
68506;BME280;55509;50.680;17.942;2023-02-17T10:50:40;99857.94;;;6.16;86.11
68506;BME280;55509;50.680;17.942;2023-02-17T10:53:43;99850.79;;;6.17;86.34
68506;BME280;55509;50.680;17.942;2023-02-17T10:56:47;99849.02;;;6.17;86.44
68506;BME280;55509;50.680;17.942;2023-02-17T10:59:52;99837.67;;;6.17;86.39
68506;BME280;55509;50.680;17.942;2023-02-17T11:02:54;99826.33;;;6.18;86.65
68506;BME280;55509;50.680;17.942;2023-02-17T11:05:59;99822.80;;;6.21;86.67
68506;BME280;55509;50.680;17.942;2023-02-17T11:09:03;99815.42;;;6.27;86.76
68506;BME280;55509;50.680;17.942;2023-02-17T11:12:10;99814.67;;;6.34;87.17
68506;BME280;55509;50.680;17.942;2023-02-17T11:15:16;99807.29;;;6.38;86.95
68506;BME280;55509;50.680;17.942;2023-02-17T11:18:19;99803.57;;;6.44;86.87
68506;BME280;55509;50.680;17.942;2023-02-17T11:21:22;99793.40;;;6.48;86.85
68506;BME280;55509;50.680;17.942;2023-02-17T11:24:24;99782.50;;;6.56;86.63
68506;BME280;55509;50.680;17.942;2023-02-17T11:27:25;99771.55;;;6.67;86.72
68506;BME280;55509;50.680;17.942;2023-02-17T11:30:28;99764.40;;;6.81;86.71
68506;BME280;55509;50.680;17.942;2023-02-17T11:33:37;99758.79;;;6.98;86.48
68506;BME280;55509;50.680;17.942;2023-02-17T11:36:39;99754.27;;;7.23;85.82
68506;BME280;55509;50.680;17.942;2023-02-17T11:39:42;99751.55;;;7.44;84.47
68506;BME280;55509;50.680;17.942;2023-02-17T11:42:44;99744.65;;;7.60;83.95
68506;BME280;55509;50.680;17.942;2023-02-17T11:46:17;99741.08;;;7.77;82.90
68506;BME280;55509;50.680;17.942;2023-02-17T11:52:22;99735.76;;;8.13;81.45
68506;BME280;55509;50.680;17.942;2023-02-17T11:58:36;99721.95;;;8.51;79.22
68506;BME280;55509;50.680;17.942;2023-02-17T12:08:03;99719.42;;;8.74;78.23
68506;BME280;55509;50.680;17.942;2023-02-17T12:20:30;99693.50;;;8.98;76.98
68506;BME280;55509;50.680;17.942;2023-02-17T12:23:40;99686.13;;;9.07;76.76
68506;BME280;55509;50.680;17.942;2023-02-17T12:26:49;99681.49;;;9.10;76.33
68506;BME280;55509;50.680;17.942;2023-02-17T12:36:20;99669.36;;;9.27;75.94
68506;BME280;55509;50.680;17.942;2023-02-17T12:42:37;99656.38;;;9.49;75.24
68506;BME280;55509;50.680;17.942;2023-02-17T12:45:41;99642.98;;;9.66;74.96
68506;BME280;55509;50.680;17.942;2023-02-17T12:48:46;99640.39;;;9.79;74.57
68506;BME280;55509;50.680;17.942;2023-02-17T12:55:15;99619.84;;;9.79;74.31
68506;BME280;55509;50.680;17.942;2023-02-17T12:58:19;99619.54;;;9.70;74.55
68506;BME280;55509;50.680;17.942;2023-02-17T13:01:23;99614.11;;;9.62;74.74
68506;BME280;55509;50.680;17.942;2023-02-17T13:04:26;99613.88;;;9.57;74.84
68506;BME280;55509;50.680;17.942;2023-02-17T13:07:47;99607.71;;;9.58;74.91
68506;BME280;55509;50.680;17.942;2023-02-17T13:11:28;99608.11;;;9.63;74.93
68506;BME280;55509;50.680;17.942;2023-02-17T13:14:27;99601.87;;;9.67;74.79
68506;BME280;55509;50.680;17.942;2023-02-17T13:17:31;99595.14;;;9.70;74.77
68506;BME280;55509;50.680;17.942;2023-02-17T13:20:37;99588.34;;;9.68;74.67
68506;BME280;55509;50.680;17.942;2023-02-17T13:23:43;99587.75;;;9.63;74.77
68506;BME280;55509;50.680;17.942;2023-02-17T13:26:45;99583.61;;;9.60;75.05
68506;BME280;55509;50.680;17.942;2023-02-17T13:29:57;99580.27;;;9.60;74.84
68506;BME280;55509;50.680;17.942;2023-02-17T13:33:25;99573.26;;;9.60;75.01
68506;BME280;55509;50.680;17.942;2023-02-17T13:39:30;99557.77;;;9.55;74.92
68506;BME280;55509;50.680;17.942;2023-02-17T13:42:34;99554.50;;;9.52;75.18
68506;BME280;55509;50.680;17.942;2023-02-17T13:45:49;99547.74;;;9.49;75.24
68506;BME280;55509;50.680;17.942;2023-02-17T13:49:01;99549.38;;;9.47;75.55
68506;BME280;55509;50.680;17.942;2023-02-17T13:52:07;99554.30;;;9.47;75.66
68506;BME280;55509;50.680;17.942;2023-02-17T13:55:16;99553.84;;;9.44;75.78
68506;BME280;55509;50.680;17.942;2023-02-17T13:58:22;99554.92;;;9.35;76.09
68506;BME280;55509;50.680;17.942;2023-02-17T14:01:25;99544.94;;;9.28;76.19
68506;BME280;55509;50.680;17.942;2023-02-17T14:04:29;99543.14;;;9.23;76.50
68506;BME280;55509;50.680;17.942;2023-02-17T14:07:33;99531.44;;;9.20;76.82
68506;BME280;55509;50.680;17.942;2023-02-17T14:10:35;99533.77;;;9.18;76.78
68506;BME280;55509;50.680;17.942;2023-02-17T14:13:37;99530.84;;;9.16;77.17
68506;BME280;55509;50.680;17.942;2023-02-17T14:16:40;99529.89;;;9.12;77.52
68506;BME280;55509;50.680;17.942;2023-02-17T14:19:44;99529.83;;;9.07;77.72
68506;BME280;55509;50.680;17.942;2023-02-17T14:22:46;99528.41;;;9.01;77.88
68506;BME280;55509;50.680;17.942;2023-02-17T14:25:47;99524.50;;;8.96;78.28
68506;BME280;55509;50.680;17.942;2023-02-17T14:28:55;99513.72;;;8.92;78.67
68506;BME280;55509;50.680;17.942;2023-02-17T14:31:57;99502.16;;;8.91;78.82
68506;BME280;55509;50.680;17.942;2023-02-17T14:38:19;99496.36;;;8.84;79.15
68506;BME280;55509;50.680;17.942;2023-02-17T14:41:22;99482.42;;;8.80;79.12
68506;BME280;55509;50.680;17.942;2023-02-17T14:44:23;99478.05;;;8.80;79.31
68506;BME280;55509;50.680;17.942;2023-02-17T14:47:25;99466.84;;;8.80;79.41
68506;BME280;55509;50.680;17.942;2023-02-17T14:50:26;99457.59;;;8.78;79.68
68506;BME280;55509;50.680;17.942;2023-02-17T14:53:29;99456.98;;;8.74;79.73
68506;BME280;55509;50.680;17.942;2023-02-17T14:59:33;99447.14;;;8.68;80.13
68506;BME280;55509;50.680;17.942;2023-02-17T15:02:34;99436.87;;;8.65;80.05
68506;BME280;55509;50.680;17.942;2023-02-17T15:05:37;99428.73;;;8.61;80.06
68506;BME280;55509;50.680;17.942;2023-02-17T15:08:39;99417.73;;;8.59;80.47
68506;BME280;55509;50.680;17.942;2023-02-17T15:11:41;99408.16;;;8.56;80.39
68506;BME280;55509;50.680;17.942;2023-02-17T15:14:46;99402.58;;;8.55;80.45
68506;BME280;55509;50.680;17.942;2023-02-17T15:17:47;99402.76;;;8.54;80.60
68506;BME280;55509;50.680;17.942;2023-02-17T15:20:49;99398.20;;;8.54;80.54
68506;BME280;55509;50.680;17.942;2023-02-17T15:23:52;99394.75;;;8.53;80.40
68506;BME280;55509;50.680;17.942;2023-02-17T15:26:53;99387.82;;;8.48;80.86
68506;BME280;55509;50.680;17.942;2023-02-17T15:29:55;99385.91;;;8.47;80.88
68506;BME280;55509;50.680;17.942;2023-02-17T15:32:56;99383.29;;;8.47;80.87
68506;BME280;55509;50.680;17.942;2023-02-17T15:35:58;99386.75;;;8.49;80.63
68506;BME280;55509;50.680;17.942;2023-02-17T15:39:00;99382.30;;;8.52;80.55
68506;BME280;55509;50.680;17.942;2023-02-17T15:42:03;99374.70;;;8.55;80.70
68506;BME280;55509;50.680;17.942;2023-02-17T15:45:08;99372.02;;;8.57;80.45
68506;BME280;55509;50.680;17.942;2023-02-17T15:51:18;99364.85;;;8.56;80.42
68506;BME280;55509;50.680;17.942;2023-02-17T15:54:20;99357.59;;;8.60;80.33
68506;BME280;55509;50.680;17.942;2023-02-17T15:57:23;99352.72;;;8.66;79.99
68506;BME280;55509;50.680;17.942;2023-02-17T16:00:27;99346.24;;;8.72;79.74
68506;BME280;55509;50.680;17.942;2023-02-17T16:03:28;99348.04;;;8.77;79.71
68506;BME280;55509;50.680;17.942;2023-02-17T16:06:30;99337.88;;;8.77;79.43
68506;BME280;55509;50.680;17.942;2023-02-17T16:09:31;99327.16;;;8.78;79.39
68506;BME280;55509;50.680;17.942;2023-02-17T16:12:33;99328.14;;;8.80;79.38
68506;BME280;55509;50.680;17.942;2023-02-17T16:15:35;99321.58;;;8.83;79.36
68506;BME280;55509;50.680;17.942;2023-02-17T16:18:37;99325.31;;;8.81;79.39
68506;BME280;55509;50.680;17.942;2023-02-17T16:21:39;99309.36;;;8.75;79.55
68506;BME280;55509;50.680;17.942;2023-02-17T16:24:40;99314.60;;;8.69;79.63
68506;BME280;55509;50.680;17.942;2023-02-17T16:27:42;99308.97;;;8.63;80.13
68506;BME280;55509;50.680;17.942;2023-02-17T16:30:44;99307.27;;;8.61;80.15
68506;BME280;55509;50.680;17.942;2023-02-17T16:33:46;99293.33;;;8.65;80.09
68506;BME280;55509;50.680;17.942;2023-02-17T16:36:48;99308.11;;;8.75;80.09
68506;BME280;55509;50.680;17.942;2023-02-17T16:39:50;99299.48;;;8.90;79.81
68506;BME280;55509;50.680;17.942;2023-02-17T16:42:52;99311.48;;;9.00;79.72
68506;BME280;55509;50.680;17.942;2023-02-17T16:45:55;99299.48;;;9.04;79.97
68506;BME280;55509;50.680;17.942;2023-02-17T16:48:57;99295.05;;;9.04;79.97
68506;BME280;55509;50.680;17.942;2023-02-17T16:52:00;99288.67;;;9.07;80.08
68506;BME280;55509;50.680;17.942;2023-02-17T16:55:01;99290.34;;;9.10;80.07
68506;BME280;55509;50.680;17.942;2023-02-17T16:58:03;99285.89;;;9.12;79.87
68506;BME280;55509;50.680;17.942;2023-02-17T17:01:11;99285.21;;;9.11;80.06
68506;BME280;55509;50.680;17.942;2023-02-17T17:04:13;99290.31;;;9.11;80.67
68506;BME280;55509;50.680;17.942;2023-02-17T17:07:15;99301.20;;;9.10;80.76
68506;BME280;55509;50.680;17.942;2023-02-17T17:10:19;99303.13;;;9.10;80.93
68506;BME280;55509;50.680;17.942;2023-02-17T17:13:21;99299.85;;;9.09;81.71
68506;BME280;55509;50.680;17.942;2023-02-17T17:16:26;99296.79;;;9.05;81.69
68506;BME280;55509;50.680;17.942;2023-02-17T17:19:30;99291.14;;;9.00;82.55
68506;BME280;55509;50.680;17.942;2023-02-17T17:22:31;99290.40;;;8.95;82.68
68506;BME280;55509;50.680;17.942;2023-02-17T17:25:37;99290.33;;;8.92;83.09
68506;BME280;55509;50.680;17.942;2023-02-17T17:28:39;99284.89;;;8.91;83.29